Terminal Aerodrome Forecast
Issued by NWS Wichita, KS

Home | Current Version | Previous Version | Graphics & Text | Print | Product List | Glossary On
Versions: 1 2 3 4 5 6 7 8 9 10 11 12 13 14 15 16 17 18 19 20 21 22 23
000
FTUS43 KICT 282300
TAFICT
TAF
KICT 282324Z 2900/2924 15011KT P6SM VCSH SCT070 BKN100
     FM290200 17008KT P6SM VCTS SCT060CB OVC090
      TEMPO 2902/2906 VRB15G30KT 3SM TSRA OVC050CB
     FM291100 22006KT P6SM VCSH SCT050 BKN080
     FM291700 21014KT P6SM VCTS SCT060CB OVC100=

USA.gov is the U.S. government's official web portal to all federal, state and local government web resources and services.